createdAt,value
2018-05-25T00:01:34.365Z,29.47
2018-05-25T00:04:01.872Z,26.77
2018-05-25T00:06:30.112Z,26.70
2018-05-25T00:08:57.594Z,30.27
2018-05-25T00:11:25.058Z,28.60
2018-05-25T00:13:53.524Z,29.13
2018-05-25T00:16:20.989Z,30.67
2018-05-25T00:18:49.220Z,30.70
2018-05-25T00:21:16.709Z,28.87
2018-05-25T00:23:44.172Z,26.20
2018-05-25T00:26:11.648Z,28.50
2018-05-25T00:28:39.879Z,28.77
2018-05-25T00:31:07.344Z,27.57
2018-05-25T00:33:35.025Z,31.07
2018-05-25T00:36:03.262Z,29.10
2018-05-25T00:38:30.734Z,26.77
2018-05-25T00:40:58.300Z,27.63
2018-05-25T00:43:25.769Z,26.20
2018-05-25T00:45:53.312Z,27.33
2018-05-25T00:48:20.785Z,26.20
2018-05-25T00:50:48.251Z,27.50
2018-05-25T00:53:16.496Z,30.30
2018-05-25T00:55:43.957Z,28.27
2018-05-25T00:58:11.449Z,27.87
2018-05-25T01:00:39.676Z,28.20
2018-05-25T01:03:07.150Z,30.13
2018-05-25T01:05:34.678Z,29.90
2018-05-25T01:08:02.140Z,33.60
2018-05-25T01:10:29.849Z,34.30
2018-05-25T01:12:58.080Z,30.30
2018-05-25T01:15:25.552Z,29.37
2018-05-25T01:17:53.232Z,28.23
2018-05-25T01:20:21.461Z,31.97
2018-05-25T01:22:48.928Z,29.20
2018-05-25T01:25:16.620Z,28.40
2018-05-25T01:27:44.079Z,28.57
2018-05-25T01:30:12.313Z,29.43
2018-05-25T01:32:40.017Z,29.40
2018-05-25T01:35:08.335Z,30.60
2018-05-25T01:37:35.796Z,30.50
2018-05-25T01:40:03.269Z,32.67
2018-05-25T01:42:30.737Z,33.83
2018-05-25T01:44:58.208Z,33.30
2018-05-25T01:47:25.701Z,32.77
2018-05-25T01:49:53.178Z,34.67
2018-05-25T01:52:20.888Z,32.33
2018-05-25T01:54:48.369Z,33.30
2018-05-25T01:57:16.597Z,33.27
2018-05-25T01:59:44.077Z,33.97
2018-05-25T02:02:11.547Z,33.87
2018-05-25T02:04:39.784Z,37.73
2018-05-25T02:07:07.260Z,35.67
2018-05-25T02:09:34.724Z,35.37
2018-05-25T02:12:02.280Z,33.13
2018-05-25T02:14:29.745Z,37.63
2018-05-25T02:16:57.973Z,32.53
2018-05-25T02:19:25.476Z,37.40
2018-05-25T02:21:53.700Z,39.73
2018-05-25T02:24:21.165Z,34.10
2018-05-25T02:26:48.862Z,34.13
2018-05-25T02:29:16.332Z,37.27
2018-05-25T02:31:44.564Z,38.40
2018-05-25T02:34:12.253Z,30.87
2018-05-25T02:36:40.502Z,35.70
2018-05-25T02:39:07.969Z,39.87
2018-05-25T02:41:35.695Z,36.27
2018-05-25T02:44:03.156Z,35.40
2018-05-25T02:46:30.652Z,33.13
2018-05-25T02:48:58.322Z,42.00
2018-05-25T02:51:25.792Z,40.10
2018-05-25T02:53:54.012Z,42.33
2018-05-25T02:56:21.721Z,40.73
2018-05-25T02:58:49.955Z,38.20
2018-05-25T03:01:17.413Z,40.17
2018-05-25T03:03:44.908Z,40.97
2018-05-25T03:06:12.373Z,39.57
2018-05-25T03:08:40.609Z,45.77
2018-05-25T03:11:08.096Z,39.67
2018-05-25T03:13:36.336Z,41.77
2018-05-25T03:16:03.812Z,47.87
2018-05-25T03:18:31.478Z,38.60
2018-05-25T03:20:58.945Z,37.97
2018-05-25T03:23:26.412Z,46.73
2018-05-25T03:25:54.657Z,36.23
2018-05-25T03:28:22.135Z,40.20
2018-05-25T03:30:49.737Z,41.27
2018-05-25T03:33:17.204Z,46.87
2018-05-25T03:35:44.677Z,53.20
2018-05-25T03:38:12.353Z,43.97
2018-05-25T03:40:39.930Z,39.70
2018-05-25T03:43:08.166Z,44.20
2018-05-25T03:45:35.649Z,42.50
2018-05-25T03:48:03.109Z,46.27
2018-05-25T03:50:30.760Z,40.60
2018-05-25T03:52:58.248Z,41.40
2018-05-25T03:55:26.476Z,44.33
2018-05-25T03:57:53.970Z,42.13
2018-05-25T04:00:34.208Z,46.57
2018-05-25T04:03:02.557Z,43.43
2018-05-25T04:05:30.025Z,45.87
2018-05-25T04:07:57.484Z,44.43
2018-05-25T04:10:25.163Z,48.83
2018-05-25T04:12:52.634Z,45.03
2018-05-25T04:15:20.861Z,48.87
2018-05-25T04:17:48.345Z,42.57
2018-05-25T04:20:15.821Z,41.57
2018-05-25T04:22:44.065Z,44.00
2018-05-25T04:25:11.529Z,35.60
2018-05-25T04:27:38.993Z,38.77
2018-05-25T04:30:06.477Z,32.73
2018-05-25T04:32:34.709Z,36.20
2018-05-25T04:35:02.166Z,35.03
2018-05-25T04:37:29.649Z,33.33
2018-05-25T04:39:57.880Z,33.53
2018-05-25T04:42:25.584Z,34.40
2018-05-25T04:44:53.041Z,33.73
2018-05-25T04:47:21.269Z,32.60
2018-05-25T04:49:48.767Z,34.50
2018-05-25T04:52:16.224Z,33.97
2018-05-25T04:54:43.778Z,31.10
2018-05-25T04:57:11.277Z,33.83
2018-05-25T04:59:38.788Z,35.43
2018-05-25T05:02:07.001Z,36.30
2018-05-25T05:04:34.513Z,36.80
2018-05-25T05:07:02.031Z,36.33
2018-05-25T05:09:29.503Z,36.97
2018-05-25T05:11:56.972Z,39.77
2018-05-25T05:14:24.438Z,35.57
2018-05-25T05:16:53.429Z,36.63
2018-05-25T05:19:20.952Z,33.10
2018-05-25T05:21:48.454Z,39.10
2018-05-25T05:24:15.946Z,30.93
2018-05-25T05:26:43.409Z,27.20
2018-05-25T05:29:10.885Z,24.87
2018-05-25T05:31:38.358Z,24.20
2018-05-25T05:34:05.829Z,24.97
2018-05-25T05:36:33.301Z,25.43
2018-05-25T05:39:00.772Z,26.90
2018-05-25T05:41:29.004Z,28.73
2018-05-25T05:43:56.493Z,29.87
2018-05-25T05:46:23.957Z,32.70
2018-05-25T05:48:52.433Z,31.43
2018-05-25T05:51:20.657Z,32.13
2018-05-25T05:53:48.129Z,34.13
2018-05-25T05:56:15.809Z,34.20
2018-05-25T05:58:44.791Z,33.97
2018-05-25T06:01:12.245Z,38.33
2018-05-25T06:03:39.928Z,38.17
2018-05-25T06:06:07.395Z,35.80
2018-05-25T06:08:35.630Z,38.07
2018-05-25T06:11:03.317Z,37.13
2018-05-25T06:13:30.827Z,39.40
2018-05-25T06:15:58.289Z,37.43
2018-05-25T06:18:25.775Z,41.77
2018-05-25T06:20:53.241Z,38.80
2018-05-25T06:23:20.712Z,38.80
2018-05-25T06:25:49.185Z,42.43
2018-05-25T06:28:16.753Z,38.47
2018-05-25T06:30:44.298Z,38.87
2018-05-25T06:33:11.957Z,41.20
2018-05-25T06:35:39.534Z,37.93
2018-05-25T06:38:07.763Z,39.23
2018-05-25T06:40:35.536Z,42.03
2018-05-25T06:43:03.015Z,40.50
2018-05-25T06:45:30.472Z,41.17
2018-05-25T06:47:58.157Z,38.43
2018-05-25T06:50:26.416Z,34.53
2018-05-25T06:52:53.876Z,37.73
2018-05-25T06:55:22.125Z,35.43
2018-05-25T06:57:49.603Z,38.33
2018-05-25T07:00:17.837Z,37.13
2018-05-25T07:02:45.314Z,37.87
2018-05-25T07:05:12.792Z,39.17
2018-05-25T07:07:41.018Z,36.50
2018-05-25T07:10:08.937Z,36.17
2018-05-25T07:12:37.170Z,35.43
2018-05-25T07:15:04.633Z,35.00
2018-05-25T07:17:32.232Z,40.47
2018-05-25T07:20:00.472Z,34.53
2018-05-25T07:22:27.929Z,37.13
2018-05-25T07:24:55.643Z,32.77
2018-05-25T07:27:23.113Z,34.80
2018-05-25T07:29:50.633Z,34.43
2018-05-25T07:32:18.889Z,33.60
2018-05-25T07:34:46.358Z,34.33
2018-05-25T07:37:13.824Z,32.40
2018-05-25T07:39:42.077Z,32.10
2018-05-25T07:42:10.315Z,33.40
2018-05-25T07:44:37.961Z,33.87
2018-05-25T07:47:05.415Z,32.37
2018-05-25T07:49:32.883Z,33.27
2018-05-25T07:52:00.589Z,31.83
2018-05-25T07:54:28.101Z,32.93
2018-05-25T07:56:55.520Z,34.07
2018-05-25T07:59:23.917Z,35.50
2018-05-25T08:01:51.398Z,30.50
2018-05-25T08:04:18.869Z,33.80
2018-05-25T08:06:46.376Z,34.87
2018-05-25T08:09:14.619Z,31.33
2018-05-25T08:11:42.101Z,28.93
2018-05-25T08:14:10.525Z,28.60
2018-05-25T08:16:38.848Z,31.73
2018-05-25T08:19:07.089Z,32.60
2018-05-25T08:21:34.577Z,28.93
2018-05-25T08:24:02.054Z,29.87
2018-05-25T08:26:30.301Z,29.37
2018-05-25T08:28:57.766Z,33.10
2018-05-25T08:31:25.231Z,30.30
2018-05-25T08:33:53.695Z,31.53
2018-05-25T08:36:21.932Z,30.90
2018-05-25T08:38:49.400Z,30.00
2018-05-25T08:41:16.898Z,31.27
2018-05-25T08:43:45.126Z,28.67
2018-05-25T08:46:12.590Z,28.83
2018-05-25T08:48:40.293Z,28.20
2018-05-25T08:53:39.517Z,31.00
2018-05-25T08:56:07.745Z,30.80
2018-05-25T08:58:35.217Z,30.70
2018-05-25T09:01:02.889Z,31.93
2018-05-25T09:03:31.132Z,28.70
2018-05-25T09:05:58.609Z,29.33
2018-05-25T09:08:26.285Z,30.10
2018-05-25T09:10:54.539Z,29.67
2018-05-25T09:13:22.012Z,31.70
2018-05-25T09:15:49.489Z,30.30
2018-05-25T09:18:17.725Z,27.33
2018-05-25T09:20:45.192Z,31.60
2018-05-25T09:23:12.858Z,27.40
2018-05-25T09:25:40.333Z,22.97
2018-05-25T09:28:08.573Z,27.40
2018-05-25T09:30:36.270Z,24.60
2018-05-25T09:33:04.510Z,21.73
2018-05-25T09:35:31.970Z,21.50
2018-05-25T09:37:59.454Z,19.13
2018-05-25T09:40:27.681Z,18.73
2018-05-25T09:42:55.164Z,20.83
2018-05-25T09:45:22.838Z,18.13
2018-05-25T09:47:50.303Z,18.67
2018-05-25T09:50:18.532Z,17.33
2018-05-25T09:52:46.244Z,20.60
2018-05-25T09:55:14.480Z,19.77
2018-05-25T09:57:54.149Z,18.30
2018-05-25T10:00:22.403Z,19.83
2018-05-25T10:02:49.901Z,17.70
2018-05-25T10:05:18.362Z,17.83
2018-05-25T10:07:45.929Z,19.20
2018-05-25T10:10:14.159Z,15.60
2018-05-25T10:12:41.805Z,14.07
2018-05-25T10:15:09.273Z,18.23
2018-05-25T10:17:36.745Z,18.77
2018-05-25T10:20:04.236Z,15.80
2018-05-25T10:22:32.473Z,16.93
2018-05-25T10:24:59.942Z,15.20
2018-05-25T10:27:27.457Z,14.73
2018-05-25T10:29:54.928Z,16.13
2018-05-25T10:32:22.393Z,15.70
2018-05-25T10:34:49.885Z,15.80
2018-05-25T10:37:18.117Z,16.77
2018-05-25T10:39:45.596Z,18.53
2018-05-25T10:42:13.270Z,16.23
2018-05-25T10:44:40.735Z,15.23
2018-05-25T10:47:08.201Z,13.90
2018-05-25T10:49:36.449Z,13.00
2018-05-25T10:52:03.927Z,16.30
2018-05-25T10:54:32.188Z,15.80
2018-05-25T10:56:59.641Z,15.97
2018-05-25T10:59:27.109Z,15.37
2018-05-25T11:01:54.608Z,15.53
2018-05-25T11:04:22.123Z,10.50
2018-05-25T11:06:49.595Z,14.27
2018-05-25T11:09:18.056Z,14.17
2018-05-25T11:11:45.533Z,14.40
2018-05-25T11:14:13.761Z,11.83
2018-05-25T11:16:41.356Z,17.57
2018-05-25T11:19:09.589Z,16.10
2018-05-25T11:21:37.154Z,16.83
2018-05-25T11:24:04.637Z,13.07
2018-05-25T11:26:32.096Z,12.77
2018-05-25T11:28:59.584Z,12.30
2018-05-25T11:31:27.050Z,12.50
2018-05-25T11:33:54.532Z,14.17
2018-05-25T11:36:22.174Z,14.47
2018-05-25T11:38:49.645Z,16.07
2018-05-25T11:41:17.123Z,14.93
2018-05-25T11:43:44.617Z,13.33
2018-05-25T11:46:12.843Z,16.53
2018-05-25T11:48:40.307Z,14.67
2018-05-25T11:51:07.785Z,12.60
2018-05-25T11:53:35.264Z,13.30
2018-05-25T11:56:03.489Z,13.70
2018-05-25T11:58:30.966Z,15.40
2018-05-25T12:00:58.442Z,14.23
2018-05-25T12:03:26.680Z,16.47
2018-05-25T12:05:54.310Z,16.40
2018-05-25T12:08:21.768Z,12.47
2018-05-25T12:10:49.284Z,11.60
2018-05-25T12:13:17.548Z,13.80
2018-05-25T12:15:45.029Z,11.53
2018-05-25T12:18:13.277Z,10.20
2018-05-25T12:20:40.765Z,11.57
2018-05-25T12:23:08.236Z,10.07
2018-05-25T12:25:35.705Z,10.90
2018-05-25T12:28:03.208Z,12.83
2018-05-25T12:30:30.661Z,11.43
2018-05-25T12:32:58.129Z,18.37
2018-05-25T12:35:26.574Z,16.17
2018-05-25T12:37:54.061Z,12.63
2018-05-25T12:40:21.529Z,13.27
2018-05-25T12:42:49.996Z,12.13
2018-05-25T12:45:17.477Z,11.47
2018-05-25T12:47:45.730Z,10.87
2018-05-25T12:50:13.401Z,11.40
2018-05-25T12:52:41.645Z,13.50
2018-05-25T12:55:09.117Z,11.00
2018-05-25T12:57:36.593Z,12.87
2018-05-25T13:00:04.832Z,15.33
2018-05-25T13:02:32.293Z,15.23
2018-05-25T13:04:59.944Z,13.30
2018-05-25T13:07:27.401Z,13.13
2018-05-25T13:09:54.875Z,13.77
2018-05-25T13:12:23.131Z,16.50
2018-05-25T13:14:50.603Z,12.30
2018-05-25T13:17:18.076Z,12.90
2018-05-25T13:19:46.511Z,11.60
2018-05-25T13:22:13.993Z,12.50
2018-05-25T13:24:41.454Z,12.13
2018-05-25T13:27:09.057Z,12.03
2018-05-25T13:29:36.509Z,12.20
2018-05-25T13:32:04.017Z,16.13
2018-05-25T13:34:31.709Z,14.13
2018-05-25T13:36:59.953Z,15.60
2018-05-25T13:39:27.432Z,16.73
2018-05-25T13:41:54.925Z,14.80
2018-05-25T13:44:22.390Z,14.53
2018-05-25T13:46:49.865Z,16.97
2018-05-25T13:49:17.596Z,14.43
2018-05-25T13:51:45.805Z,13.33
2018-05-25T13:54:13.262Z,12.07
2018-05-25T13:56:40.804Z,12.77
2018-05-25T13:59:08.272Z,14.50
2018-05-25T14:01:35.750Z,13.27
2018-05-25T14:04:03.438Z,13.77
2018-05-25T14:06:31.678Z,16.07
2018-05-25T14:08:59.157Z,12.53
2018-05-25T14:11:26.661Z,13.43
2018-05-25T14:13:54.133Z,13.23
2018-05-25T14:16:21.829Z,13.40
2018-05-25T14:18:49.296Z,14.03
2018-05-25T14:21:17.549Z,18.10
2018-05-25T14:23:45.055Z,11.10
2018-05-25T14:26:12.625Z,11.90
2018-05-25T14:28:40.110Z,11.73
2018-05-25T14:31:07.592Z,11.73
2018-05-25T14:33:35.065Z,12.57
2018-05-25T14:36:03.300Z,12.33
2018-05-25T14:38:30.817Z,15.53
2018-05-25T14:40:58.268Z,12.93
2018-05-25T14:43:25.765Z,12.10
2018-05-25T14:45:53.243Z,11.13
2018-05-25T14:48:20.717Z,12.03
2018-05-25T14:50:48.945Z,14.67
2018-05-25T14:53:16.443Z,10.87
2018-05-25T14:55:45.417Z,11.73
2018-05-25T14:58:12.894Z,14.97
2018-05-25T15:00:40.405Z,11.37
2018-05-25T15:03:07.869Z,11.57
2018-05-25T15:05:35.332Z,12.90
2018-05-25T15:08:03.024Z,14.20
2018-05-25T15:10:30.480Z,13.90
2018-05-25T15:12:58.766Z,9.97
2018-05-25T15:15:27.022Z,12.43
2018-05-25T15:17:54.490Z,11.23
2018-05-25T15:20:22.973Z,12.63
2018-05-25T15:22:51.193Z,9.77
2018-05-25T15:25:18.653Z,10.47
2018-05-25T15:27:46.305Z,11.67
2018-05-25T15:30:13.778Z,9.43
2018-05-25T15:32:41.346Z,9.63
2018-05-25T15:35:08.771Z,9.30
2018-05-25T15:37:36.226Z,8.47
2018-05-25T15:40:03.758Z,8.97
2018-05-25T15:42:31.993Z,11.27
2018-05-25T15:44:59.460Z,8.90
2018-05-25T15:47:28.438Z,9.03
2018-05-25T15:49:55.910Z,11.53
2018-05-25T15:52:23.489Z,9.37
2018-05-25T15:54:51.725Z,7.30
2018-05-25T15:57:19.196Z,7.80
2018-05-25T15:59:46.662Z,8.20
2018-05-25T16:02:14.143Z,13.70
2018-05-25T16:04:41.603Z,9.00
2018-05-25T16:07:09.836Z,10.70
2018-05-25T16:09:37.312Z,8.83
2018-05-25T16:12:04.972Z,8.27
2018-05-25T16:14:33.201Z,9.43
2018-05-25T16:17:00.660Z,8.40
2018-05-25T16:19:28.308Z,8.97
2018-05-25T16:21:55.773Z,10.80
2018-05-25T16:24:23.249Z,8.27
2018-05-25T16:26:50.734Z,13.63
2018-05-25T16:29:20.706Z,10.00
2018-05-25T16:31:49.118Z,8.57
2018-05-25T16:34:16.596Z,9.60
2018-05-25T16:36:44.818Z,9.33
2018-05-25T16:39:12.357Z,9.83
2018-05-25T16:41:40.119Z,9.13
2018-05-25T16:44:07.572Z,9.60
2018-05-25T16:46:35.048Z,11.00
2018-05-25T16:49:02.546Z,11.40
2018-05-25T16:51:30.797Z,12.13
2018-05-25T16:53:58.278Z,13.83
2018-05-25T16:56:25.933Z,13.33
2018-05-25T16:58:53.402Z,12.17
2018-05-25T17:01:20.880Z,10.40
2018-05-25T17:03:49.134Z,10.97
2018-05-25T17:06:16.589Z,10.47
2018-05-25T17:08:44.817Z,9.10
2018-05-25T17:11:12.309Z,7.60
2018-05-25T17:13:39.761Z,9.00
2018-05-25T17:16:07.430Z,9.90
2018-05-25T17:18:34.894Z,8.23
2018-05-25T17:21:03.134Z,9.27
2018-05-25T17:23:30.659Z,9.63
2018-05-25T17:25:58.877Z,8.50
2018-05-25T17:28:26.335Z,8.53
2018-05-25T17:30:53.797Z,7.97
2018-05-25T17:33:21.277Z,9.10
2018-05-25T17:35:48.741Z,23.93
2018-05-25T17:38:16.985Z,10.63
2018-05-25T17:40:44.465Z,10.10
2018-05-25T17:43:12.684Z,10.73
2018-05-25T17:45:40.312Z,11.03
2018-05-25T17:48:08.536Z,10.60
2018-05-25T17:50:36.476Z,14.63
2018-05-25T17:53:03.992Z,9.97
2018-05-25T17:55:32.231Z,12.73
2018-05-25T17:57:59.721Z,11.70
2018-05-25T18:00:27.977Z,11.50
2018-05-25T18:02:55.455Z,13.23
2018-05-25T18:05:23.840Z,11.07
2018-05-25T18:07:52.082Z,8.73
2018-05-25T18:10:19.595Z,9.10
2018-05-25T18:12:47.226Z,9.80
2018-05-25T18:15:14.793Z,11.23
2018-05-25T18:17:42.260Z,10.20
2018-05-25T18:20:10.501Z,9.90
2018-05-25T18:22:38.790Z,9.00
2018-05-25T18:25:06.257Z,10.00
2018-05-25T18:27:34.513Z,10.67
2018-05-25T18:30:01.985Z,11.50
2018-05-25T18:32:30.264Z,12.30
2018-05-25T18:34:58.503Z,11.70
2018-05-25T18:37:25.970Z,11.40
2018-05-25T18:39:53.471Z,19.00
2018-05-25T18:42:20.956Z,11.83
2018-05-25T18:44:48.430Z,12.60
2018-05-25T18:47:16.162Z,11.80
2018-05-25T18:49:43.635Z,11.70
2018-05-25T18:52:11.118Z,11.70
2018-05-25T18:54:38.597Z,13.87
2018-05-25T18:57:06.820Z,14.67
2018-05-25T18:59:34.542Z,15.30
2018-05-25T19:02:02.781Z,13.63
2018-05-25T19:04:30.263Z,10.70
2018-05-25T19:06:58.561Z,10.50
2018-05-25T19:09:27.001Z,10.27
2018-05-25T19:11:54.494Z,12.73
2018-05-25T19:14:22.731Z,16.77
2018-05-25T19:16:51.709Z,14.47
2018-05-25T19:19:19.200Z,12.60
2018-05-25T19:21:47.442Z,12.70
2018-05-25T19:24:14.915Z,13.40
2018-05-25T19:26:42.409Z,12.37
2018-05-25T19:29:09.884Z,14.40
2018-05-25T19:31:37.439Z,12.60
2018-05-25T19:34:04.909Z,10.73
2018-05-25T19:36:32.383Z,10.10
2018-05-25T19:38:59.854Z,11.40
2018-05-25T19:41:28.135Z,13.43
2018-05-25T19:43:55.621Z,13.40
2018-05-25T19:46:23.849Z,14.70
2018-05-25T19:48:51.351Z,12.10
2018-05-25T19:51:19.582Z,11.37
2018-05-25T19:53:47.056Z,13.53
2018-05-25T19:56:14.723Z,12.87
2018-05-25T19:58:42.994Z,12.40
2018-05-25T20:01:10.481Z,10.57
2018-05-25T20:03:38.717Z,9.33
2018-05-25T20:06:06.192Z,10.10
2018-05-25T20:08:34.670Z,10.53
2018-05-25T20:11:02.140Z,11.03
2018-05-25T20:13:30.377Z,9.93
2018-05-25T20:15:58.111Z,13.60
2018-05-25T20:18:25.594Z,9.37
2018-05-25T20:20:53.269Z,9.97
2018-05-25T20:23:20.808Z,12.83
2018-05-25T20:25:48.988Z,10.83
2018-05-25T20:28:16.665Z,10.63
2018-05-25T20:30:45.648Z,11.10
2018-05-25T20:33:14.633Z,11.17
2018-05-25T20:35:42.124Z,15.83
2018-05-25T20:38:10.361Z,10.97
2018-05-25T20:40:37.827Z,10.57
2018-05-25T20:43:05.317Z,12.03
2018-05-25T20:45:33.537Z,9.87
2018-05-25T20:48:01.014Z,11.90
2018-05-25T20:50:28.686Z,10.90
2018-05-25T20:52:56.174Z,10.10
2018-05-25T20:55:24.393Z,13.33
2018-05-25T20:57:51.886Z,13.70
2018-05-25T21:00:20.115Z,11.07
2018-05-25T21:02:47.584Z,9.80
2018-05-25T21:05:15.064Z,10.77
2018-05-25T21:07:42.520Z,9.40
2018-05-25T21:10:10.013Z,12.17
2018-05-25T21:12:37.492Z,10.37
2018-05-25T21:15:04.977Z,12.20
2018-05-25T21:17:32.444Z,10.70
2018-05-25T21:20:00.100Z,12.30
2018-05-25T21:22:27.616Z,9.83
2018-05-25T21:24:55.077Z,10.47
2018-05-25T21:27:22.781Z,10.90
2018-05-25T21:29:50.248Z,11.60
2018-05-25T21:32:18.534Z,12.67
2018-05-25T21:34:46.807Z,14.00
2018-05-25T21:37:15.056Z,13.83
2018-05-25T21:39:42.513Z,13.10
2018-05-25T21:42:09.993Z,17.30
2018-05-25T21:44:38.243Z,13.97
2018-05-25T21:47:05.714Z,11.83
2018-05-25T21:49:33.199Z,14.43
2018-05-25T21:52:00.773Z,13.50
2018-05-25T21:54:28.331Z,12.40
2018-05-25T21:56:55.791Z,13.90
2018-05-25T21:59:23.305Z,17.70
2018-05-25T22:01:51.836Z,12.50
2018-05-25T22:04:19.293Z,13.37
2018-05-25T22:06:46.766Z,12.87
2018-05-25T22:09:14.488Z,12.40
2018-05-25T22:11:41.953Z,12.20
2018-05-25T22:14:09.416Z,12.30
2018-05-25T22:16:36.932Z,12.80
2018-05-25T22:19:04.373Z,12.77
2018-05-25T22:21:31.836Z,12.00
2018-05-25T22:23:59.321Z,12.83
2018-05-25T22:26:27.548Z,15.33
2018-05-25T22:28:55.225Z,13.50
2018-05-25T22:31:22.694Z,11.40
2018-05-25T22:33:50.156Z,13.13
2018-05-25T22:36:18.410Z,12.60
2018-05-25T22:38:45.877Z,13.50
2018-05-25T22:41:13.360Z,17.40
2018-05-25T22:43:52.821Z,13.33
2018-05-25T22:46:32.284Z,17.00
2018-05-25T22:49:11.658Z,15.60
2018-05-25T22:51:52.628Z,14.80
2018-05-25T22:54:36.172Z,18.70
2018-05-25T22:57:03.639Z,16.43
2018-05-25T22:59:31.313Z,20.10
2018-05-25T23:01:58.796Z,17.00
2018-05-25T23:04:26.273Z,16.60
2018-05-25T23:06:53.785Z,15.80
2018-05-25T23:09:21.261Z,15.47
2018-05-25T23:11:48.732Z,16.63
2018-05-25T23:14:16.221Z,14.93
2018-05-25T23:16:44.453Z,16.33
2018-05-25T23:19:11.949Z,20.77
2018-05-25T23:21:39.431Z,15.43
2018-05-25T23:24:06.893Z,15.13
2018-05-25T23:26:34.357Z,14.27
2018-05-25T23:29:02.072Z,17.10
2018-05-25T23:31:30.305Z,16.83
2018-05-25T23:33:57.772Z,19.53
2018-05-25T23:36:25.265Z,15.97
2018-05-25T23:38:52.725Z,14.77
2018-05-25T23:41:20.953Z,14.90
2018-05-25T23:43:48.441Z,15.17
2018-05-25T23:46:15.925Z,15.90
2018-05-25T23:48:44.153Z,16.10
2018-05-25T23:51:11.640Z,16.90
2018-05-25T23:53:39.105Z,14.47
2018-05-25T23:56:07.353Z,15.00
2018-05-25T23:58:34.826Z,23.13
